sensor_id;sensor_type;location;lat;lon;timestamp;P1;durP1;ratioP1;P2;durP2;ratioP2
26034;SDS011;13809;48.632;11.576;2022-08-04T00:00:43;2.10;;;1.90;;
26034;SDS011;13809;48.632;11.576;2022-08-04T00:05:56;2.17;;;1.67;;
26034;SDS011;13809;48.632;11.576;2022-08-04T00:11:03;1.90;;;1.80;;
26034;SDS011;13809;48.632;11.576;2022-08-04T00:16:15;2.20;;;2.00;;
26034;SDS011;13809;48.632;11.576;2022-08-04T00:21:20;1.87;;;1.77;;
26034;SDS011;13809;48.632;11.576;2022-08-04T00:26:27;2.00;;;1.90;;
26034;SDS011;13809;48.632;11.576;2022-08-04T00:31:31;2.50;;;1.90;;
26034;SDS011;13809;48.632;11.576;2022-08-04T00:36:55;2.13;;;2.03;;
26034;SDS011;13809;48.632;11.576;2022-08-04T00:48:03;3.43;;;1.90;;
26034;SDS011;13809;48.632;11.576;2022-08-04T00:53:27;2.27;;;2.07;;
26034;SDS011;13809;48.632;11.576;2022-08-04T00:58:42;1.93;;;1.83;;
26034;SDS011;13809;48.632;11.576;2022-08-04T01:03:54;1.77;;;1.67;;
26034;SDS011;13809;48.632;11.576;2022-08-04T01:09:08;1.93;;;1.80;;
26034;SDS011;13809;48.632;11.576;2022-08-04T01:14:35;1.80;;;1.70;;
26034;SDS011;13809;48.632;11.576;2022-08-04T01:19:52;2.20;;;2.10;;
26034;SDS011;13809;48.632;11.576;2022-08-04T01:25:08;1.80;;;1.70;;
26034;SDS011;13809;48.632;11.576;2022-08-04T01:30:41;2.57;;;1.97;;
26034;SDS011;13809;48.632;11.576;2022-08-04T01:35:47;1.90;;;1.80;;
26034;SDS011;13809;48.632;11.576;2022-08-04T01:40:54;1.87;;;1.77;;
26034;SDS011;13809;48.632;11.576;2022-08-04T01:46:02;1.70;;;1.60;;
26034;SDS011;13809;48.632;11.576;2022-08-04T01:51:07;2.07;;;1.90;;
26034;SDS011;13809;48.632;11.576;2022-08-04T01:56:11;1.80;;;1.70;;
26034;SDS011;13809;48.632;11.576;2022-08-04T02:01:16;1.80;;;1.70;;
26034;SDS011;13809;48.632;11.576;2022-08-04T02:06:22;1.70;;;1.60;;
26034;SDS011;13809;48.632;11.576;2022-08-04T02:11:32;1.87;;;1.77;;
26034;SDS011;13809;48.632;11.576;2022-08-04T02:16:39;2.23;;;2.03;;
26034;SDS011;13809;48.632;11.576;2022-08-04T02:21:54;2.10;;;2.00;;
26034;SDS011;13809;48.632;11.576;2022-08-04T02:27:04;2.03;;;1.90;;
26034;SDS011;13809;48.632;11.576;2022-08-04T02:32:11;2.00;;;1.90;;
26034;SDS011;13809;48.632;11.576;2022-08-04T02:37:22;2.23;;;1.97;;
26034;SDS011;13809;48.632;11.576;2022-08-04T02:42:28;2.13;;;2.00;;
26034;SDS011;13809;48.632;11.576;2022-08-04T02:47:32;2.10;;;1.77;;
26034;SDS011;13809;48.632;11.576;2022-08-04T02:52:57;1.90;;;1.80;;
26034;SDS011;13809;48.632;11.576;2022-08-04T02:58:02;2.33;;;2.13;;
26034;SDS011;13809;48.632;11.576;2022-08-04T03:03:11;3.07;;;1.97;;
26034;SDS011;13809;48.632;11.576;2022-08-04T03:08:30;2.30;;;2.10;;
26034;SDS011;13809;48.632;11.576;2022-08-04T03:14:03;2.20;;;1.90;;
26034;SDS011;13809;48.632;11.576;2022-08-04T03:19:38;2.00;;;1.90;;
26034;SDS011;13809;48.632;11.576;2022-08-04T03:25:11;2.10;;;2.00;;
26034;SDS011;13809;48.632;11.576;2022-08-04T03:30:26;3.70;;;2.30;;
26034;SDS011;13809;48.632;11.576;2022-08-04T03:35:47;2.60;;;1.90;;
26034;SDS011;13809;48.632;11.576;2022-08-04T03:41:17;2.00;;;1.90;;
26034;SDS011;13809;48.632;11.576;2022-08-04T03:47:04;2.83;;;2.00;;
26034;SDS011;13809;48.632;11.576;2022-08-04T03:52:42;2.20;;;2.10;;
26034;SDS011;13809;48.632;11.576;2022-08-04T03:58:16;2.03;;;1.77;;
26034;SDS011;13809;48.632;11.576;2022-08-04T04:03:46;5.30;;;2.20;;
26034;SDS011;13809;48.632;11.576;2022-08-04T04:15:13;3.13;;;2.60;;
26034;SDS011;13809;48.632;11.576;2022-08-04T04:26:00;5.33;;;2.80;;
26034;SDS011;13809;48.632;11.576;2022-08-04T04:31:17;6.17;;;2.77;;
26034;SDS011;13809;48.632;11.576;2022-08-04T04:36:32;4.93;;;2.73;;
26034;SDS011;13809;48.632;11.576;2022-08-04T04:42:00;5.30;;;2.37;;
26034;SDS011;13809;48.632;11.576;2022-08-04T04:47:22;4.80;;;2.57;;
26034;SDS011;13809;48.632;11.576;2022-08-04T04:52:54;3.60;;;2.20;;
26034;SDS011;13809;48.632;11.576;2022-08-04T04:58:05;3.83;;;2.60;;
26034;SDS011;13809;48.632;11.576;2022-08-04T05:03:27;3.70;;;2.40;;
26034;SDS011;13809;48.632;11.576;2022-08-04T05:14:22;4.50;;;2.37;;
26034;SDS011;13809;48.632;11.576;2022-08-04T05:19:43;8.10;;;2.70;;
26034;SDS011;13809;48.632;11.576;2022-08-04T05:24:58;4.73;;;3.10;;
26034;SDS011;13809;48.632;11.576;2022-08-04T05:30:07;2.97;;;2.77;;
26034;SDS011;13809;48.632;11.576;2022-08-04T05:35:15;3.20;;;2.90;;
26034;SDS011;13809;48.632;11.576;2022-08-04T05:40:43;4.20;;;2.50;;
26034;SDS011;13809;48.632;11.576;2022-08-04T05:45:48;2.77;;;2.57;;
26034;SDS011;13809;48.632;11.576;2022-08-04T05:50:53;3.00;;;2.73;;
26034;SDS011;13809;48.632;11.576;2022-08-04T05:56:01;3.47;;;2.50;;
26034;SDS011;13809;48.632;11.576;2022-08-04T06:01:09;2.77;;;2.57;;
26034;SDS011;13809;48.632;11.576;2022-08-04T06:06:13;2.80;;;2.60;;
26034;SDS011;13809;48.632;11.576;2022-08-04T06:11:18;2.80;;;2.60;;
26034;SDS011;13809;48.632;11.576;2022-08-04T06:16:25;3.00;;;2.43;;
26034;SDS011;13809;48.632;11.576;2022-08-04T06:21:37;3.10;;;2.90;;
26034;SDS011;13809;48.632;11.576;2022-08-04T06:26:44;5.87;;;2.57;;
26034;SDS011;13809;48.632;11.576;2022-08-04T06:31:52;3.10;;;2.90;;
26034;SDS011;13809;48.632;11.576;2022-08-04T06:37:20;2.90;;;2.60;;
26034;SDS011;13809;48.632;11.576;2022-08-04T06:42:44;5.73;;;3.03;;
26034;SDS011;13809;48.632;11.576;2022-08-04T06:47:50;3.17;;;2.80;;
26034;SDS011;13809;48.632;11.576;2022-08-04T06:52:55;3.83;;;2.93;;
26034;SDS011;13809;48.632;11.576;2022-08-04T06:57:58;2.90;;;2.37;;
26034;SDS011;13809;48.632;11.576;2022-08-04T07:03:05;3.13;;;2.70;;
26034;SDS011;13809;48.632;11.576;2022-08-04T07:08:09;2.80;;;2.60;;
26034;SDS011;13809;48.632;11.576;2022-08-04T07:13:13;2.90;;;2.70;;
26034;SDS011;13809;48.632;11.576;2022-08-04T07:18:18;2.80;;;2.60;;
26034;SDS011;13809;48.632;11.576;2022-08-04T07:23:22;2.87;;;2.67;;
26034;SDS011;13809;48.632;11.576;2022-08-04T07:28:28;3.63;;;2.50;;
26034;SDS011;13809;48.632;11.576;2022-08-04T07:33:33;2.90;;;2.70;;
26034;SDS011;13809;48.632;11.576;2022-08-04T07:38:37;3.20;;;3.00;;
26034;SDS011;13809;48.632;11.576;2022-08-04T07:43:51;4.90;;;2.77;;
26034;SDS011;13809;48.632;11.576;2022-08-04T07:48:57;4.30;;;2.53;;
26034;SDS011;13809;48.632;11.576;2022-08-04T07:54:02;2.60;;;2.40;;
26034;SDS011;13809;48.632;11.576;2022-08-04T07:59:06;2.80;;;2.57;;
26034;SDS011;13809;48.632;11.576;2022-08-04T08:04:11;4.60;;;2.53;;
26034;SDS011;13809;48.632;11.576;2022-08-04T08:09:15;2.73;;;2.53;;
26034;SDS011;13809;48.632;11.576;2022-08-04T08:14:21;3.37;;;2.83;;
26034;SDS011;13809;48.632;11.576;2022-08-04T08:19:27;2.87;;;2.67;;
26034;SDS011;13809;48.632;11.576;2022-08-04T08:24:32;2.70;;;2.50;;
26034;SDS011;13809;48.632;11.576;2022-08-04T08:29:37;2.93;;;2.43;;
26034;SDS011;13809;48.632;11.576;2022-08-04T08:34:42;2.57;;;2.43;;
26034;SDS011;13809;48.632;11.576;2022-08-04T08:39:48;2.77;;;2.67;;
26034;SDS011;13809;48.632;11.576;2022-08-04T08:56:35;2.80;;;2.60;;
26034;SDS011;13809;48.632;11.576;2022-08-04T09:01:49;2.37;;;2.27;;
26034;SDS011;13809;48.632;11.576;2022-08-04T09:07:13;2.70;;;2.40;;
26034;SDS011;13809;48.632;11.576;2022-08-04T09:12:32;2.30;;;2.20;;
26034;SDS011;13809;48.632;11.576;2022-08-04T09:17:51;2.20;;;2.10;;
26034;SDS011;13809;48.632;11.576;2022-08-04T09:23:02;2.97;;;2.33;;
26034;SDS011;13809;48.632;11.576;2022-08-04T09:28:13;2.43;;;2.33;;
26034;SDS011;13809;48.632;11.576;2022-08-04T09:33:44;2.50;;;2.30;;
26034;SDS011;13809;48.632;11.576;2022-08-04T09:38:59;2.60;;;2.50;;
26034;SDS011;13809;48.632;11.576;2022-08-04T09:44:12;2.60;;;2.40;;
26034;SDS011;13809;48.632;11.576;2022-08-04T09:49:45;2.47;;;2.37;;
26034;SDS011;13809;48.632;11.576;2022-08-04T09:54:58;2.33;;;2.23;;
26034;SDS011;13809;48.632;11.576;2022-08-04T10:00:12;2.30;;;2.10;;
26034;SDS011;13809;48.632;11.576;2022-08-04T10:05:19;2.10;;;2.00;;
26034;SDS011;13809;48.632;11.576;2022-08-04T10:10:32;2.10;;;2.00;;
26034;SDS011;13809;48.632;11.576;2022-08-04T10:15:42;2.30;;;2.10;;
26034;SDS011;13809;48.632;11.576;2022-08-04T10:20:59;2.07;;;1.97;;
26034;SDS011;13809;48.632;11.576;2022-08-04T10:26:24;2.20;;;2.10;;
26034;SDS011;13809;48.632;11.576;2022-08-04T10:31:35;2.00;;;1.90;;
26034;SDS011;13809;48.632;11.576;2022-08-04T10:36:50;2.30;;;2.20;;
26034;SDS011;13809;48.632;11.576;2022-08-04T10:42:02;2.00;;;1.90;;
26034;SDS011;13809;48.632;11.576;2022-08-04T10:47:17;2.10;;;1.90;;
26034;SDS011;13809;48.632;11.576;2022-08-04T10:52:25;2.00;;;1.90;;
26034;SDS011;13809;48.632;11.576;2022-08-04T10:57:36;1.83;;;1.73;;
26034;SDS011;13809;48.632;11.576;2022-08-04T11:02:52;1.80;;;1.70;;
26034;SDS011;13809;48.632;11.576;2022-08-04T11:08:00;1.83;;;1.73;;
26034;SDS011;13809;48.632;11.576;2022-08-04T11:13:15;2.00;;;1.90;;
26034;SDS011;13809;48.632;11.576;2022-08-04T11:18:33;2.17;;;1.80;;
26034;SDS011;13809;48.632;11.576;2022-08-04T11:23:55;1.90;;;1.80;;
26034;SDS011;13809;48.632;11.576;2022-08-04T11:29:04;2.03;;;1.93;;
26034;SDS011;13809;48.632;11.576;2022-08-04T11:34:18;2.00;;;1.90;;
26034;SDS011;13809;48.632;11.576;2022-08-04T11:39:24;2.00;;;1.90;;
26034;SDS011;13809;48.632;11.576;2022-08-04T11:44:36;2.03;;;1.93;;
26034;SDS011;13809;48.632;11.576;2022-08-04T11:49:48;2.00;;;1.90;;
26034;SDS011;13809;48.632;11.576;2022-08-04T11:54:58;2.03;;;1.90;;
26034;SDS011;13809;48.632;11.576;2022-08-04T12:00:07;2.13;;;2.03;;
26034;SDS011;13809;48.632;11.576;2022-08-04T12:05:15;1.97;;;1.87;;
26034;SDS011;13809;48.632;11.576;2022-08-04T12:10:40;2.30;;;2.10;;
26034;SDS011;13809;48.632;11.576;2022-08-04T12:15:51;2.00;;;1.90;;
26034;SDS011;13809;48.632;11.576;2022-08-04T12:21:04;2.10;;;2.00;;
26034;SDS011;13809;48.632;11.576;2022-08-04T12:26:13;2.20;;;2.10;;
26034;SDS011;13809;48.632;11.576;2022-08-04T12:31:23;2.20;;;2.10;;
26034;SDS011;13809;48.632;11.576;2022-08-04T12:36:32;2.10;;;2.00;;
26034;SDS011;13809;48.632;11.576;2022-08-04T12:41:41;2.10;;;2.00;;
26034;SDS011;13809;48.632;11.576;2022-08-04T12:46:54;2.20;;;2.10;;
26034;SDS011;13809;48.632;11.576;2022-08-04T12:52:20;2.00;;;1.90;;
26034;SDS011;13809;48.632;11.576;2022-08-04T12:57:44;2.23;;;2.00;;
26034;SDS011;13809;48.632;11.576;2022-08-04T13:02:50;2.20;;;2.10;;
26034;SDS011;13809;48.632;11.576;2022-08-04T13:07:55;2.00;;;1.90;;
26034;SDS011;13809;48.632;11.576;2022-08-04T13:12:59;1.80;;;1.70;;
26034;SDS011;13809;48.632;11.576;2022-08-04T13:18:03;2.20;;;2.00;;
26034;SDS011;13809;48.632;11.576;2022-08-04T13:23:17;2.10;;;1.80;;
26034;SDS011;13809;48.632;11.576;2022-08-04T13:28:23;1.97;;;1.87;;
26034;SDS011;13809;48.632;11.576;2022-08-04T13:33:28;2.20;;;2.00;;
26034;SDS011;13809;48.632;11.576;2022-08-04T13:38:37;1.87;;;1.77;;
26034;SDS011;13809;48.632;11.576;2022-08-04T13:43:47;2.37;;;1.90;;
26034;SDS011;13809;48.632;11.576;2022-08-04T13:49:14;2.00;;;1.90;;
26034;SDS011;13809;48.632;11.576;2022-08-04T13:54:43;2.23;;;2.10;;
26034;SDS011;13809;48.632;11.576;2022-08-04T13:59:56;2.00;;;1.90;;
26034;SDS011;13809;48.632;11.576;2022-08-04T14:05:04;1.90;;;1.80;;
26034;SDS011;13809;48.632;11.576;2022-08-04T14:10:20;2.10;;;2.00;;
26034;SDS011;13809;48.632;11.576;2022-08-04T14:15:28;2.10;;;1.90;;
26034;SDS011;13809;48.632;11.576;2022-08-04T14:20:57;2.00;;;1.90;;
26034;SDS011;13809;48.632;11.576;2022-08-04T14:26:14;2.20;;;1.70;;
26034;SDS011;13809;48.632;11.576;2022-08-04T14:31:19;1.80;;;1.70;;
26034;SDS011;13809;48.632;11.576;2022-08-04T14:36:37;1.77;;;1.67;;
26034;SDS011;13809;48.632;11.576;2022-08-04T14:42:02;1.87;;;1.77;;
26034;SDS011;13809;48.632;11.576;2022-08-04T14:47:06;1.70;;;1.60;;
26034;SDS011;13809;48.632;11.576;2022-08-04T14:52:20;1.77;;;1.70;;
26034;SDS011;13809;48.632;11.576;2022-08-04T14:57:26;2.13;;;1.93;;
26034;SDS011;13809;48.632;11.576;2022-08-04T15:02:30;1.77;;;1.67;;
26034;SDS011;13809;48.632;11.576;2022-08-04T15:07:36;2.53;;;2.10;;
26034;SDS011;13809;48.632;11.576;2022-08-04T15:12:41;1.80;;;1.70;;
26034;SDS011;13809;48.632;11.576;2022-08-04T15:17:45;1.80;;;1.70;;
26034;SDS011;13809;48.632;11.576;2022-08-04T15:22:49;1.90;;;1.80;;
26034;SDS011;13809;48.632;11.576;2022-08-04T15:27:53;2.20;;;1.70;;
26034;SDS011;13809;48.632;11.576;2022-08-04T15:32:59;1.77;;;1.67;;
26034;SDS011;13809;48.632;11.576;2022-08-04T15:38:05;1.90;;;1.80;;
26034;SDS011;13809;48.632;11.576;2022-08-04T15:43:20;1.67;;;1.57;;
26034;SDS011;13809;48.632;11.576;2022-08-04T15:48:44;2.20;;;1.80;;
26034;SDS011;13809;48.632;11.576;2022-08-04T16:10:35;1.90;;;1.80;;
26034;SDS011;13809;48.632;11.576;2022-08-04T16:15:42;1.93;;;1.83;;
26034;SDS011;13809;48.632;11.576;2022-08-04T16:20:54;2.30;;;2.10;;
26034;SDS011;13809;48.632;11.576;2022-08-04T16:25:59;4.63;;;2.03;;
26034;SDS011;13809;48.632;11.576;2022-08-04T16:31:04;1.97;;;1.87;;
26034;SDS011;13809;48.632;11.576;2022-08-04T16:36:10;2.08;;;1.90;;
26034;SDS011;13809;48.632;11.576;2022-08-04T16:41:22;1.83;;;1.73;;
26034;SDS011;13809;48.632;11.576;2022-08-04T16:46:41;2.07;;;1.87;;
26034;SDS011;13809;48.632;11.576;2022-08-04T16:52:04;1.93;;;1.83;;
26034;SDS011;13809;48.632;11.576;2022-08-04T16:57:14;1.80;;;1.70;;
26034;SDS011;13809;48.632;11.576;2022-08-04T17:02:19;1.70;;;1.60;;
26034;SDS011;13809;48.632;11.576;2022-08-04T17:07:26;1.83;;;1.73;;
26034;SDS011;13809;48.632;11.576;2022-08-04T17:12:29;1.73;;;1.63;;
26034;SDS011;13809;48.632;11.576;2022-08-04T17:17:34;1.80;;;1.70;;
26034;SDS011;13809;48.632;11.576;2022-08-04T17:23:03;2.03;;;1.77;;
26034;SDS011;13809;48.632;11.576;2022-08-04T17:28:54;2.00;;;1.85;;
26034;SDS011;13809;48.632;11.576;2022-08-04T17:34:01;1.92;;;1.83;;
26034;SDS011;13809;48.632;11.576;2022-08-04T17:39:17;1.83;;;1.73;;
26034;SDS011;13809;48.632;11.576;2022-08-04T17:44:33;1.90;;;1.70;;
26034;SDS011;13809;48.632;11.576;2022-08-04T17:49:39;1.90;;;1.80;;
26034;SDS011;13809;48.632;11.576;2022-08-04T17:54:57;1.80;;;1.70;;
26034;SDS011;13809;48.632;11.576;2022-08-04T18:00:03;1.70;;;1.60;;
26034;SDS011;13809;48.632;11.576;2022-08-04T18:05:26;1.87;;;1.77;;
26034;SDS011;13809;48.632;11.576;2022-08-04T18:10:52;2.10;;;2.00;;
26034;SDS011;13809;48.632;11.576;2022-08-04T18:16:00;1.60;;;1.50;;
26034;SDS011;13809;48.632;11.576;2022-08-04T18:21:05;1.90;;;1.80;;
26034;SDS011;13809;48.632;11.576;2022-08-04T18:26:10;1.70;;;1.60;;
26034;SDS011;13809;48.632;11.576;2022-08-04T18:31:13;1.90;;;1.80;;
26034;SDS011;13809;48.632;11.576;2022-08-04T18:36:18;2.10;;;2.00;;
26034;SDS011;13809;48.632;11.576;2022-08-04T18:41:38;2.13;;;2.00;;
26034;SDS011;13809;48.632;11.576;2022-08-04T18:47:01;2.20;;;2.10;;
26034;SDS011;13809;48.632;11.576;2022-08-04T18:52:21;2.37;;;2.03;;
26034;SDS011;13809;48.632;11.576;2022-08-04T18:57:25;2.40;;;2.20;;
26034;SDS011;13809;48.632;11.576;2022-08-04T19:02:51;3.07;;;2.30;;
26034;SDS011;13809;48.632;11.576;2022-08-04T19:07:56;2.70;;;2.50;;
26034;SDS011;13809;48.632;11.576;2022-08-04T19:13:19;3.97;;;2.70;;
26034;SDS011;13809;48.632;11.576;2022-08-04T19:18:26;2.67;;;2.30;;
26034;SDS011;13809;48.632;11.576;2022-08-04T19:23:31;2.20;;;2.10;;
26034;SDS011;13809;48.632;11.576;2022-08-04T19:28:55;2.33;;;2.13;;
26034;SDS011;13809;48.632;11.576;2022-08-04T19:33:58;2.20;;;2.00;;
26034;SDS011;13809;48.632;11.576;2022-08-04T19:39:08;3.30;;;2.43;;
26034;SDS011;13809;48.632;11.576;2022-08-04T19:44:12;3.50;;;3.30;;
26034;SDS011;13809;48.632;11.576;2022-08-04T19:49:17;4.37;;;2.80;;
26034;SDS011;13809;48.632;11.576;2022-08-04T19:54:42;3.53;;;3.23;;
26034;SDS011;13809;48.632;11.576;2022-08-04T19:59:49;3.17;;;2.97;;
26034;SDS011;13809;48.632;11.576;2022-08-04T20:04:55;3.03;;;2.83;;
26034;SDS011;13809;48.632;11.576;2022-08-04T20:10:00;3.00;;;2.80;;
26034;SDS011;13809;48.632;11.576;2022-08-04T20:15:05;3.43;;;2.57;;
26034;SDS011;13809;48.632;11.576;2022-08-04T20:20:12;2.60;;;2.40;;
26034;SDS011;13809;48.632;11.576;2022-08-04T20:25:17;3.97;;;2.60;;
26034;SDS011;13809;48.632;11.576;2022-08-04T20:30:37;2.57;;;2.37;;
26034;SDS011;13809;48.632;11.576;2022-08-04T20:35:41;2.70;;;2.50;;
26034;SDS011;13809;48.632;11.576;2022-08-04T20:41:05;2.93;;;2.70;;
26034;SDS011;13809;48.632;11.576;2022-08-04T20:46:09;3.10;;;2.80;;
26034;SDS011;13809;48.632;11.576;2022-08-04T20:51:29;3.33;;;2.73;;
26034;SDS011;13809;48.632;11.576;2022-08-04T20:56:41;4.43;;;3.00;;
26034;SDS011;13809;48.632;11.576;2022-08-04T21:01:51;3.40;;;2.90;;
26034;SDS011;13809;48.632;11.576;2022-08-04T21:06:54;2.87;;;2.67;;
26034;SDS011;13809;48.632;11.576;2022-08-04T21:11:59;3.20;;;2.77;;
26034;SDS011;13809;48.632;11.576;2022-08-04T21:17:03;2.93;;;2.63;;
26034;SDS011;13809;48.632;11.576;2022-08-04T21:22:08;4.70;;;2.80;;
26034;SDS011;13809;48.632;11.576;2022-08-04T21:27:13;2.57;;;2.37;;
26034;SDS011;13809;48.632;11.576;2022-08-04T21:32:16;2.40;;;2.30;;
26034;SDS011;13809;48.632;11.576;2022-08-04T21:37:27;3.63;;;2.70;;
26034;SDS011;13809;48.632;11.576;2022-08-04T21:42:52;2.83;;;2.63;;
26034;SDS011;13809;48.632;11.576;2022-08-04T21:47:55;2.80;;;2.60;;
26034;SDS011;13809;48.632;11.576;2022-08-04T21:52:58;2.80;;;2.60;;
26034;SDS011;13809;48.632;11.576;2022-08-04T21:58:03;2.70;;;2.50;;
26034;SDS011;13809;48.632;11.576;2022-08-04T22:03:08;2.77;;;2.57;;
26034;SDS011;13809;48.632;11.576;2022-08-04T22:08:31;2.80;;;2.50;;
26034;SDS011;13809;48.632;11.576;2022-08-04T22:13:36;2.80;;;2.60;;
26034;SDS011;13809;48.632;11.576;2022-08-04T22:19:00;2.80;;;2.60;;
26034;SDS011;13809;48.632;11.576;2022-08-04T22:24:04;2.63;;;2.43;;
26034;SDS011;13809;48.632;11.576;2022-08-04T22:29:15;3.03;;;2.27;;
26034;SDS011;13809;48.632;11.576;2022-08-04T22:34:19;2.70;;;2.50;;
26034;SDS011;13809;48.632;11.576;2022-08-04T22:39:24;2.90;;;2.53;;
26034;SDS011;13809;48.632;11.576;2022-08-04T22:44:29;4.80;;;2.80;;
26034;SDS011;13809;48.632;11.576;2022-08-04T22:49:34;2.40;;;2.27;;
26034;SDS011;13809;48.632;11.576;2022-08-04T22:54:38;2.80;;;2.60;;
26034;SDS011;13809;48.632;11.576;2022-08-04T22:59:43;2.67;;;2.47;;
26034;SDS011;13809;48.632;11.576;2022-08-04T23:04:49;2.60;;;2.40;;
26034;SDS011;13809;48.632;11.576;2022-08-04T23:09:54;3.60;;;2.30;;
26034;SDS011;13809;48.632;11.576;2022-08-04T23:14:59;2.43;;;2.33;;
26034;SDS011;13809;48.632;11.576;2022-08-04T23:20:03;2.90;;;2.70;;
26034;SDS011;13809;48.632;11.576;2022-08-04T23:25:23;3.00;;;2.77;;
26034;SDS011;13809;48.632;11.576;2022-08-04T23:30:48;3.03;;;2.83;;
26034;SDS011;13809;48.632;11.576;2022-08-04T23:35:54;2.60;;;2.40;;
26034;SDS011;13809;48.632;11.576;2022-08-04T23:41:03;2.67;;;2.47;;
26034;SDS011;13809;48.632;11.576;2022-08-04T23:46:14;2.70;;;2.50;;
26034;SDS011;13809;48.632;11.576;2022-08-04T23:51:21;2.70;;;2.50;;
26034;SDS011;13809;48.632;11.576;2022-08-04T23:56:25;3.00;;;2.73;;
